Аэропорт: Гумрак. Волгоград

ICAO: URWW

METAR:
2018/09/23 11:00
URWW 231100Z 16007MPS CAVOK 23/08 Q1016 R24/010070 NOSIG
METAR:
2015/12/24 15:15
TAF COR TAF COR URWW 241510Z 2415/2524 30013G18MPS 9999 BKN007 SCT020CB BKN100 
      TEMPO 2415/2421 27008G13MPS 2100 -SHRA BR